Time;durP1;ratioP1;P1;durP2;ratioP2;P2;SDS_P1;SDS_P2;PMS_P1;PMS_P2;Temp;Humidity;BMP_temperature;BMP_pressure;BME280_temperature;BME280_humidity;BME280_pressure;Samples;Min_cycle;Max_cycle;Signal;HPM_P1;HPM_P2
2022/07/15 00:00:10;;;;;;;13.65;5.35;;;;;;;19.43;49.42;96318.09;2055449;28;20047;-39
2022/07/15 00:01:11;;;;;;;13.30;6.63;;;;;;;19.47;49.58;96318.72;2040445;28;20054;-38
2022/07/15 00:02:13;;;;;;;8.77;3.70;;;;;;;19.42;49.50;96319.06;2039497;29;20398;-38
2022/07/15 00:03:14;;;;;;;15.82;8.65;;;;;;;19.42;49.09;96316.44;2047735;28;20051;-39
2022/07/15 00:04:16;;;;;;;34.72;7.90;;;;;;;19.43;49.28;96310.19;2056300;28;20481;-37
2022/07/15 00:05:17;;;;;;;14.20;4.38;;;;;;;19.44;48.98;96314.53;2063263;28;20420;-38
2022/07/15 00:06:19;;;;;;;30.23;14.23;;;;;;;19.41;49.55;96316.56;2062577;28;20057;-37
2022/07/15 00:07:20;;;;;;;14.43;5.65;;;;;;;19.40;49.83;96323.59;2047191;28;20078;-40
2022/07/15 00:08:21;;;;;;;32.83;8.82;;;;;;;19.39;49.35;96325.41;2055386;28;20534;-37
2022/07/15 00:10:13;;;;;;;6.03;3.10;;;;;;;19.40;49.48;96326.25;2063606;28;20057;-38
2022/07/15 00:10:44;;;;;;;23.58;6.05;;;;;;;19.38;49.63;96321.13;2063399;28;20054;-36
2022/07/15 00:11:45;;;;;;;25.80;6.03;;;;;;;19.39;49.11;96319.31;2063646;28;20046;-38
2022/07/15 00:12:49;;;;;;;16.08;3.30;;;;;;;19.33;48.99;96317.16;2062857;28;20053;-41
2022/07/15 00:13:50;;;;;;;9.43;3.63;;;;;;;19.27;49.58;96322.88;2054858;28;20054;-40
2022/07/15 00:14:52;;;;;;;15.60;3.70;;;;;;;19.28;50.34;96311.41;2047760;29;20051;-39
2022/07/15 00:15:53;;;;;;;17.83;3.92;;;;;;;19.25;49.96;96312.47;2056598;28;20051;-37
2022/07/15 00:16:54;;;;;;;11.10;3.28;;;;;;;19.28;49.21;96311.41;2047893;29;20062;-40
2022/07/15 00:17:57;;;;;;;9.85;3.38;;;;;;;19.25;49.62;96316.91;2048230;28;20051;-38
2022/07/15 00:18:58;;;;;;;13.23;3.40;;;;;;;19.22;49.71;96320.63;2048154;28;20102;-37
2022/07/15 00:19:59;;;;;;;9.65;3.38;;;;;;;19.24;49.04;96317.84;2055706;28;20141;-38
2022/07/15 00:21:00;;;;;;;9.27;4.75;;;;;;;19.24;49.41;96321.31;2047618;29;20055;-38
2022/07/15 00:22:01;;;;;;;7.85;3.30;;;;;;;19.24;49.85;96325.75;2055526;28;20095;-38
2022/07/15 00:23:04;;;;;;;16.80;9.13;;;;;;;19.24;49.75;96333.66;2048486;28;20142;-42
2022/07/15 00:24:05;;;;;;;12.80;6.10;;;;;;;19.24;49.58;96337.09;2047817;28;20081;-40
2022/07/15 00:25:07;;;;;;;16.92;6.00;;;;;;;19.27;49.82;96336.03;2055766;28;20051;-37
2022/07/15 00:26:08;;;;;;;13.13;5.28;;;;;;;19.24;49.41;96331.00;2047417;29;20437;-36
2022/07/15 00:27:09;;;;;;;13.65;4.15;;;;;;;19.22;49.72;96332.91;2041431;28;20059;-40
2022/07/15 00:28:10;;;;;;;10.63;3.22;;;;;;;19.26;47.76;96329.94;2047739;28;20051;-38
2022/07/15 00:29:12;;;;;;;23.45;9.13;;;;;;;19.24;47.45;96326.59;2064087;28;20173;-37
2022/07/15 00:30:13;;;;;;;6.80;3.00;;;;;;;19.24;47.42;96331.84;2063505;28;20064;-40
2022/07/15 00:31:14;;;;;;;26.77;11.88;;;;;;;19.22;48.10;96325.88;2048549;28;20525;-37
2022/07/15 00:32:16;;;;;;;7.55;3.33;;;;;;;19.18;47.44;96321.78;2063328;28;20057;-38
2022/07/15 00:33:18;;;;;;;17.88;6.38;;;;;;;19.15;48.21;96332.56;2071604;28;20057;-37
2022/07/15 00:34:19;;;;;;;10.43;3.65;;;;;;;19.13;47.60;96319.50;2055692;28;20519;-40
2022/07/15 00:35:21;;;;;;;26.02;7.15;;;;;;;19.15;47.53;96333.41;2047600;28;20046;-35
2022/07/15 00:36:22;;;;;;;7.97;3.30;;;;;;;19.12;46.58;96333.63;2056072;28;20047;-38
2022/07/15 00:37:23;;;;;;;7.97;3.63;;;;;;;19.13;46.88;96329.19;2063750;28;20054;-38
2022/07/15 00:38:25;;;;;;;12.77;3.20;;;;;;;19.11;46.73;96342.50;2047896;28;20050;-37
2022/07/15 00:39:27;;;;;;;16.75;4.78;;;;;;;19.08;47.97;96332.19;2056395;28;20034;-38
2022/07/15 00:40:28;;;;;;;8.77;3.10;;;;;;;19.05;47.51;96329.78;2064024;28;20046;-39
2022/07/15 00:41:37;;;;;;;12.40;4.35;;;;;;;18.99;47.43;96332.88;2055667;28;20427;-41
2022/07/15 00:42:46;;;;;;;15.15;3.58;;;;;;;18.96;48.00;96325.22;2026900;29;20175;-38
2022/07/15 00:43:47;;;;;;;5.22;2.97;;;;;;;18.92;47.34;96324.63;2042290;28;20059;-36
2022/07/15 00:44:48;;;;;;;12.88;3.85;;;;;;;18.89;47.74;96324.00;2063094;28;20093;-39
2022/07/15 00:45:49;;;;;;;6.20;3.35;;;;;;;18.87;47.63;96318.88;2047724;29;20054;-41
2022/07/15 00:46:53;;;;;;;14.25;7.82;;;;;;;18.81;48.17;96323.75;2047728;28;20177;-38
2022/07/15 00:47:55;;;;;;;12.63;4.32;;;;;;;18.83;47.73;96321.84;2064166;28;20066;-40
2022/07/15 00:48:57;;;;;;;8.00;3.95;;;;;;;18.88;46.71;96319.72;2055829;28;20151;-37
2022/07/15 00:49:59;;;;;;;11.35;4.20;;;;;;;18.89;47.12;96324.00;2062975;28;20061;-37
2022/07/15 00:51:00;;;;;;;5.53;2.92;;;;;;;18.90;46.68;96330.97;2055168;28;20053;-41
2022/07/15 00:52:01;;;;;;;8.68;3.50;;;;;;;18.87;47.06;96328.53;2047366;28;20047;-38
2022/07/15 00:53:05;;;;;;;10.07;3.20;;;;;;;18.91;46.72;96327.38;2047899;28;20055;-40
2022/07/15 00:54:12;;;;;;;8.35;3.63;;;;;;;18.88;46.64;96332.88;2048386;28;20054;-36
2022/07/15 00:55:13;;;;;;;7.70;4.65;;;;;;;18.85;46.69;96333.94;2056533;28;20053;-40
2022/07/15 00:56:14;;;;;;;6.80;3.35;;;;;;;18.86;46.61;96332.13;2063430;28;20550;-39
2022/07/15 00:57:16;;;;;;;13.32;3.80;;;;;;;18.81;46.45;96340.34;2047442;29;20058;-37
2022/07/15 00:58:18;;;;;;;8.45;3.88;;;;;;;18.77;47.29;96335.47;2039925;29;20055;-38
2022/07/15 00:59:22;;;;;;;11.48;5.38;;;;;;;18.73;46.11;96334.81;2049478;28;20036;-36
2022/07/15 01:00:24;;;;;;;12.55;3.58;;;;;;;18.68;46.09;96323.78;2064053;28;20042;-38
2022/07/15 01:01:25;;;;;;;6.03;2.88;;;;;;;18.68;45.84;96334.31;2063463;28;20046;-39
2022/07/15 01:02:26;;;;;;;16.48;3.85;;;;;;;18.62;46.61;96332.97;2064278;28;20543;-42
2022/07/15 01:03:28;;;;;;;10.10;2.90;;;;;;;18.60;45.73;96332.25;2063620;28;20042;-38
2022/07/15 01:04:29;;;;;;;10.52;3.08;;;;;;;18.57;47.26;96332.47;2055558;28;20039;-39
2022/07/15 01:05:30;;;;;;;10.48;3.10;;;;;;;18.51;46.06;96327.66;2055806;28;20042;-42
2022/07/15 01:06:32;;;;;;;7.82;2.30;;;;;;;18.48;45.42;96330.53;2047935;28;20042;-36
2022/07/15 01:07:33;;;;;;;8.20;3.92;;;;;;;18.51;45.74;96332.94;2056132;28;20043;-36
2022/07/15 01:08:35;;;;;;;6.38;2.92;;;;;;;18.44;45.64;96329.94;2048061;28;20047;-40
2022/07/15 01:09:36;;;;;;;5.15;2.50;;;;;;;18.45;44.85;96328.13;2047919;28;20059;-38
2022/07/15 01:10:37;;;;;;;6.53;2.63;;;;;;;18.43;45.14;96322.13;2055866;28;20046;-37
2022/07/15 01:11:39;;;;;;;9.55;2.83;;;;;;;18.39;45.58;96324.16;2040775;29;20048;-39
2022/07/15 01:12:41;;;;;;;4.90;2.35;;;;;;;18.36;45.61;96323.53;2040448;28;20060;-40
2022/07/15 01:13:42;;;;;;;7.75;2.63;;;;;;;18.32;44.91;96329.97;2055904;28;20047;-40
2022/07/15 01:14:44;;;;;;;11.93;5.20;;;;;;;18.26;45.76;96326.00;2048340;28;20424;-38
2022/07/15 01:15:46;;;;;;;34.33;28.17;;;;;;;18.27;45.23;96325.88;2047892;29;20560;-38
2022/07/15 01:16:48;;;;;;;6.47;2.65;;;;;;;18.26;44.62;96326.00;2047982;28;20058;-37
2022/07/15 01:17:50;;;;;;;5.82;2.60;;;;;;;18.23;44.43;96324.44;2055993;28;20545;-38
2022/07/15 01:18:52;;;;;;;9.02;2.90;;;;;;;18.26;44.96;96326.00;2055793;28;20397;-38
2022/07/15 01:19:54;;;;;;;6.18;2.50;;;;;;;18.24;45.13;96327.91;2048126;28;20054;-38
2022/07/15 01:20:56;;;;;;;7.07;2.42;;;;;;;18.17;44.75;96322.22;2055462;28;20054;-39
2022/07/15 01:21:57;;;;;;;23.75;4.22;;;;;;;18.18;45.56;96325.72;2055604;28;20047;-39
2022/07/15 01:22:59;;;;;;;10.60;2.88;;;;;;;18.22;45.15;96321.91;2048313;28;20054;-37
2022/07/15 01:24:07;;;;;;;7.13;2.35;;;;;;;18.14;45.38;96327.72;2049325;28;20051;-40
2022/07/15 01:25:16;;;;;;;8.90;2.75;;;;;;;18.11;45.57;96330.56;2056980;28;20051;-39
2022/07/15 01:26:18;;;;;;;13.88;3.70;;;;;;;18.09;45.26;96329.84;2062582;28;20046;-38
2022/07/15 01:27:19;;;;;;;10.50;3.17;;;;;;;18.06;45.15;96333.53;2048066;28;20432;-37
2022/07/15 01:28:21;;;;;;;8.00;3.50;;;;;;;18.03;45.87;96330.28;2055628;28;20054;-40
2022/07/15 01:29:23;;;;;;;6.10;2.97;;;;;;;17.96;46.56;96329.91;2048290;28;20078;-38
2022/07/15 01:30:25;;;;;;;12.30;4.60;;;;;;;17.96;46.55;96323.78;2047694;28;20058;-37
2022/07/15 01:31:26;;;;;;;4.72;2.33;;;;;;;18.00;45.89;96322.63;2039806;29;20047;-39
2022/07/15 01:32:28;;;;;;;8.73;3.45;;;;;;;17.99;45.91;96321.78;2039986;29;20040;-38
2022/07/15 01:33:32;;;;;;;6.35;2.58;;;;;;;17.98;46.16;96335.84;2048723;28;20043;-38
2022/07/15 01:34:33;;;;;;;7.28;2.90;;;;;;;17.97;46.40;96330.72;2056102;28;20043;-37
2022/07/15 01:35:35;;;;;;;4.97;2.72;;;;;;;17.95;45.36;96330.81;2056021;28;20043;-37
2022/07/15 01:36:36;;;;;;;12.73;6.28;;;;;;;17.94;46.12;96333.59;2063249;28;20046;-40
2022/07/15 01:37:38;;;;;;;10.23;4.28;;;;;;;17.93;45.65;96335.34;2063828;28;20058;-40
2022/07/15 01:38:39;;;;;;;7.50;3.17;;;;;;;17.87;45.97;96342.84;2062984;28;20050;-38
2022/07/15 01:39:42;;;;;;;10.82;3.28;;;;;;;17.87;45.28;96343.66;2056025;28;20047;-37
2022/07/15 01:40:43;;;;;;;6.10;2.25;;;;;;;17.85;45.22;96341.16;2064359;28;20047;-38
2022/07/15 01:41:45;;;;;;;5.43;2.08;;;;;;;17.90;45.74;96342.63;2063567;28;20057;-39
2022/07/15 01:42:50;;;;;;;8.93;2.33;;;;;;;17.85;45.51;96341.16;2055402;28;20094;-37
2022/07/15 01:43:51;;;;;;;7.65;2.63;;;;;;;17.83;45.09;96331.72;2048150;29;20059;-39
2022/07/15 01:44:52;;;;;;;5.28;2.38;;;;;;;17.82;44.98;96333.47;2055713;28;20050;-39
2022/07/15 01:45:53;;;;;;;5.40;2.50;;;;;;;17.85;45.78;96341.16;2048141;29;20055;-37
2022/07/15 01:47:03;;;;;;;7.30;2.70;;;;;;;17.80;44.94;96338.03;2057892;28;20401;-37
2022/07/15 01:48:07;;;;;;;5.38;2.47;;;;;;;17.80;46.03;96340.66;2064002;28;20042;-40
2022/07/15 01:50:43;;;;;;;6.90;2.72;;;;;;;17.69;45.89;96337.88;2048340;28;20047;-40
2022/07/15 01:51:50;;;;;;;15.00;3.58;;;;;;;17.68;45.87;96338.84;2051551;28;20050;-38
2022/07/15 01:52:51;;;;;;;4.80;2.45;;;;;;;17.62;46.71;96337.50;2049165;28;20517;-39
2022/07/15 01:53:53;;;;;;;5.30;2.03;;;;;;;17.57;46.14;96341.38;2055880;28;20509;-40
2022/07/15 01:54:54;;;;;;;12.55;2.38;;;;;;;17.54;46.58;96334.56;2048308;28;20051;-37
2022/07/15 01:55:56;;;;;;;6.07;2.05;;;;;;;17.52;46.69;96339.06;2048578;28;20073;-38
2022/07/15 01:56:58;;;;;;;10.35;2.75;;;;;;;17.50;46.54;96342.75;2057063;28;20051;-38
2022/07/15 01:58:00;;;;;;;5.93;2.45;;;;;;;17.50;47.07;96340.13;2057546;28;20043;-38
2022/07/15 01:59:02;;;;;;;6.80;2.30;;;;;;;17.42;46.55;96341.47;2056747;28;20054;-38
2022/07/15 02:00:06;;;;;;;5.32;2.13;;;;;;;17.49;46.52;96343.72;2057471;28;20053;-38
2022/07/15 02:01:18;;;;;;;7.68;2.50;;;;;;;17.52;46.62;96343.50;2057406;28;20432;-37
2022/07/15 02:02:20;;;;;;;4.20;1.95;;;;;;;17.46;46.43;96338.69;2056454;28;20050;-37
2022/07/15 02:03:21;;;;;;;10.02;2.72;;;;;;;17.45;47.37;96345.69;2042402;28;20044;-40
2022/07/15 02:04:24;;;;;;;8.00;3.20;;;;;;;17.44;47.26;96340.56;2049800;28;20043;-39
2022/07/15 02:05:25;;;;;;;6.38;2.17;;;;;;;17.46;47.42;96339.50;2042971;28;20047;-39
2022/07/15 02:06:29;;;;;;;4.97;2.08;;;;;;;17.47;47.17;96335.09;2048732;29;20059;-38
2022/07/15 02:07:31;;;;;;;8.05;2.80;;;;;;;17.48;48.22;96331.50;2049843;28;20043;-40
2022/07/15 02:08:32;;;;;;;6.38;2.60;;;;;;;17.44;47.52;96335.31;2041984;28;20062;-37
2022/07/15 02:09:34;;;;;;;6.50;2.70;;;;;;;17.37;47.32;96335.75;2041869;28;20044;-37
2022/07/15 02:10:42;;;;;;;9.48;2.65;;;;;;;17.33;47.51;96344.75;2042028;29;20058;-41
2022/07/15 02:11:51;;;;;;;7.45;2.38;;;;;;;17.27;47.90;96342.56;2045604;28;20047;-37
2022/07/15 02:12:55;;;;;;;10.88;2.65;;;;;;;17.20;48.45;96349.16;2057316;28;20055;-39
2022/07/15 02:14:01;;;;;;;7.28;2.30;;;;;;;17.16;48.37;96350.31;2049436;29;20047;-38
2022/07/15 02:15:03;;;;;;;7.28;2.33;;;;;;;17.06;49.20;96330.91;2050548;28;20505;-38
2022/07/15 02:16:15;;;;;;;7.90;1.90;;;;;;;17.09;48.79;96342.03;2049863;28;20067;-38
2022/07/15 02:17:16;;;;;;;7.25;2.65;;;;;;;17.11;48.69;96331.44;2049785;28;20414;-39
2022/07/15 02:18:28;;;;;;;4.63;2.38;;;;;;;17.10;48.27;96333.19;2043353;29;20531;-42
2022/07/15 02:19:30;;;;;;;4.82;2.22;;;;;;;17.07;48.73;96332.56;2058166;28;20063;-41
2022/07/15 02:20:32;;;;;;;6.55;2.42;;;;;;;17.07;48.52;96335.19;2073180;28;20042;-40
2022/07/15 02:21:34;;;;;;;5.53;2.33;;;;;;;17.05;48.35;96334.44;2072831;28;20046;-39
2022/07/15 02:22:37;;;;;;;5.80;2.40;;;;;;;17.03;48.39;96339.00;2063531;28;20034;-40
2022/07/15 02:23:38;;;;;;;6.18;2.45;;;;;;;17.01;48.76;96333.81;2072549;28;20050;-41
2022/07/15 02:24:42;;;;;;;5.60;2.42;;;;;;;17.03;48.05;96336.38;2064731;28;20054;-39
2022/07/15 02:25:43;;;;;;;6.78;2.17;;;;;;;17.00;48.81;96333.91;2057377;28;20058;-40
2022/07/15 02:26:45;;;;;;;7.05;2.60;;;;;;;17.00;48.66;96331.28;2048943;29;20055;-40
2022/07/15 02:27:47;;;;;;;7.53;2.25;;;;;;;16.96;48.81;96331.50;2048839;28;20047;-40
2022/07/15 02:28:48;;;;;;;3.42;1.98;;;;;;;16.96;48.31;96330.69;2071875;28;20050;-41
2022/07/15 02:29:49;;;;;;;7.82;2.20;;;;;;;16.93;48.53;96333.50;2062032;28;20050;-41
2022/07/15 02:30:53;;;;;;;6.95;2.65;;;;;;;16.87;48.39;96336.56;2057493;28;20414;-43
2022/07/15 02:31:54;;;;;;;7.00;2.20;;;;;;;16.88;48.30;96333.81;2056739;28;20054;-40
2022/07/15 02:32:56;;;;;;;6.40;2.42;;;;;;;16.86;49.14;96340.94;2065562;28;20058;-41
2022/07/15 02:33:57;;;;;;;9.98;2.42;;;;;;;16.80;49.61;96338.72;2056740;28;20122;-41
2022/07/15 02:35:02;;;;;;;5.70;2.30;;;;;;;16.82;48.92;96333.41;2056762;28;20528;-40
2022/07/15 02:36:04;;;;;;;6.78;2.50;;;;;;;16.86;48.66;96335.69;2065226;28;20046;-41
2022/07/15 02:37:06;;;;;;;5.72;3.05;;;;;;;16.84;49.16;96329.72;2065016;28;20066;-41
2022/07/15 02:38:07;;;;;;;6.50;2.65;;;;;;;16.82;49.82;96339.47;2057037;28;20497;-41
2022/07/15 02:39:08;;;;;;;6.63;2.50;;;;;;;16.85;49.68;96335.81;2056835;28;20410;-40
2022/07/15 02:40:10;;;;;;;6.55;2.67;;;;;;;16.83;49.84;96337.69;2065370;28;20041;-41
2022/07/15 02:41:12;;;;;;;5.65;2.35;;;;;;;16.82;50.26;96334.22;2057704;28;20409;-39
2022/07/15 02:42:15;;;;;;;6.65;2.45;;;;;;;16.89;49.07;96332.88;2065206;28;20540;-43
2022/07/15 02:43:16;;;;;;;7.47;2.30;;;;;;;16.85;49.98;96338.44;2065644;28;20046;-41
2022/07/15 02:44:19;;;;;;;6.35;2.20;;;;;;;16.83;49.96;96338.53;2065258;28;20102;-43
2022/07/15 02:45:24;;;;;;;6.70;2.38;;;;;;;16.83;48.98;96337.69;2072528;28;20050;-44
2022/07/15 02:46:26;;;;;;;7.13;3.83;;;;;;;16.79;48.79;96338.84;2065395;28;20118;-42
2022/07/15 02:47:28;;;;;;;10.43;2.70;;;;;;;16.72;49.65;96338.38;2048957;28;20047;-41
2022/07/15 02:48:29;;;;;;;7.75;2.38;;;;;;;16.68;50.13;96337.75;2057823;28;20038;-44
2022/07/15 02:49:31;;;;;;;9.50;2.40;;;;;;;16.70;50.49;96348.09;2072548;28;20053;-41
2022/07/15 02:50:32;;;;;;;7.90;2.55;;;;;;;16.70;50.95;96348.09;2064971;28;20057;-41
2022/07/15 02:51:34;;;;;;;4.25;1.83;;;;;;;16.64;50.38;96344.13;2064138;28;20421;-40
2022/07/15 02:52:36;;;;;;;6.60;2.33;;;;;;;16.61;50.56;96346.09;2057006;28;20050;-41
2022/07/15 02:53:39;;;;;;;8.07;2.35;;;;;;;16.61;50.43;96346.09;2056999;28;20290;-43
2022/07/15 02:54:44;;;;;;;5.57;2.15;;;;;;;16.53;50.91;96339.56;2066357;28;20177;-39
2022/07/15 02:55:47;;;;;;;6.57;2.20;;;;;;;16.56;51.18;96342.94;2072777;28;20527;-44
2022/07/15 02:56:48;;;;;;;5.30;2.28;;;;;;;16.56;50.80;96346.41;2064600;28;20062;-41
2022/07/15 02:57:49;;;;;;;6.88;2.33;;;;;;;16.59;50.89;96345.34;2065136;28;20057;-40
2022/07/15 02:58:50;;;;;;;5.47;2.30;;;;;;;16.61;51.40;96351.34;2064684;28;20050;-40
2022/07/15 02:59:52;;;;;;;7.20;2.65;;;;;;;16.61;51.46;96348.72;2072599;28;20076;-43
2022/07/15 03:00:53;;;;;;;5.65;2.38;;;;;;;16.62;50.63;96347.78;2072798;28;20586;-40
2022/07/15 03:01:55;;;;;;;13.43;2.75;;;;;;;16.59;51.24;96350.59;2072453;28;20065;-41
2022/07/15 03:02:57;;;;;;;8.95;2.80;;;;;;;16.56;51.01;96354.25;2072886;28;20049;-41
2022/07/15 03:04:00;;;;;;;7.28;3.13;;;;;;;16.56;50.97;96351.66;2081068;28;20068;-40
2022/07/15 03:05:01;;;;;;;8.20;2.90;;;;;;;16.54;51.31;96354.38;2064912;28;20042;-39
2022/07/15 03:06:02;;;;;;;6.65;3.28;;;;;;;16.57;51.04;96357.72;2056624;28;20062;-41
2022/07/15 03:07:04;;;;;;;6.00;2.60;;;;;;;16.57;52.52;96360.34;2064831;28;20053;-41
2022/07/15 03:08:05;;;;;;;4.50;2.25;;;;;;;16.50;51.45;96352.06;2064195;28;20444;-39
2022/07/15 03:09:07;;;;;;;8.60;3.50;;;;;;;16.49;51.91;96352.97;2049060;28;20498;-40
2022/07/15 03:10:09;;;;;;;8.40;2.80;;;;;;;16.47;52.81;96362.75;2057329;28;20050;-43
2022/07/15 03:11:11;;;;;;;8.70;2.85;;;;;;;16.47;52.12;96360.13;2072971;28;20045;-43
2022/07/15 03:12:13;;;;;;;6.78;2.60;;;;;;;16.47;51.45;96363.56;2064700;28;20050;-39
2022/07/15 03:13:14;;;;;;;7.13;2.42;;;;;;;16.47;52.60;96363.56;2057033;28;20054;-40
2022/07/15 03:14:16;;;;;;;9.20;3.28;;;;;;;16.51;51.62;96356.34;2064871;28;20053;-40
2022/07/15 03:15:17;;;;;;;5.68;2.38;;;;;;;16.54;52.47;96357.00;2064967;28;20057;-42
2022/07/15 03:16:18;;;;;;;6.13;2.65;;;;;;;16.54;52.86;96362.25;2064820;28;20062;-40
2022/07/15 03:17:23;;;;;;;6.55;2.80;;;;;;;16.51;52.43;96370.28;2057217;28;20046;-40
2022/07/15 03:18:24;;;;;;;7.32;2.83;;;;;;;16.50;52.53;96366.00;2056604;28;20540;-43
2022/07/15 03:19:26;;;;;;;8.57;2.92;;;;;;;16.51;52.23;96359.81;2064652;28;20038;-40
2022/07/15 03:20:27;;;;;;;8.82;2.90;;;;;;;16.51;51.96;96367.66;2072785;28;20053;-41
2022/07/15 03:21:28;;;;;;;7.70;2.60;;;;;;;16.54;52.85;96364.00;2056716;28;20054;-40
2022/07/15 03:22:29;;;;;;;9.00;2.92;;;;;;;16.52;52.46;96371.16;2048342;28;20047;-41
2022/07/15 03:23:31;;;;;;;7.93;2.78;;;;;;;16.44;52.70;96365.53;2052929;28;20051;-43
2022/07/15 03:24:32;;;;;;;8.48;2.88;;;;;;;16.40;52.59;96369.31;2056877;28;20436;-38
2022/07/15 03:25:34;;;;;;;4.85;2.47;;;;;;;16.34;53.44;96367.94;2072473;28;20417;-39
2022/07/15 03:26:40;;;;;;;4.18;2.22;;;;;;;16.35;53.60;96372.22;2055282;28;20058;-40
2022/07/15 03:27:41;;;;;;;6.05;2.65;;;;;;;16.32;53.66;96375.03;2042291;28;20530;-44
2022/07/15 03:28:45;;;;;;;8.75;2.95;;;;;;;16.28;53.37;96369.16;2056834;28;20699;-40
2022/07/15 03:29:46;;;;;;;7.22;3.00;;;;;;;16.25;53.57;96377.22;2047852;29;20058;-38
2022/07/15 03:30:48;;;;;;;5.38;2.42;;;;;;;16.25;53.80;96379.84;2048483;28;20064;-40
2022/07/15 03:31:50;;;;;;;6.70;2.67;;;;;;;16.20;54.26;96374.06;2056827;28;20051;-40
2022/07/15 03:32:57;;;;;;;6.50;2.20;;;;;;;16.23;53.93;96373.84;2064442;28;20062;-43
2022/07/15 03:33:59;;;;;;;10.77;2.58;;;;;;;16.24;54.41;96379.94;2056351;28;20046;-38
2022/07/15 03:35:02;;;;;;;7.18;2.63;;;;;;;16.22;54.31;96371.31;2056884;28;20146;-40
2022/07/15 03:36:06;;;;;;;6.30;2.40;;;;;;;16.23;54.29;96370.41;2057169;28;20047;-42
2022/07/15 03:37:08;;;;;;;6.97;2.75;;;;;;;16.20;54.35;96374.06;2049174;28;20055;-40
2022/07/15 03:38:10;;;;;;;6.90;2.45;;;;;;;16.20;54.13;96370.56;2048578;28;20043;-42
2022/07/15 03:39:12;;;;;;;8.13;2.60;;;;;;;16.16;54.58;96372.56;2064036;28;20057;-44
2022/07/15 03:40:14;;;;;;;5.35;2.38;;;;;;;16.09;55.01;96372.13;2064133;28;20057;-41
2022/07/15 03:41:15;;;;;;;6.22;2.60;;;;;;;16.16;55.64;96384.81;2064798;28;20456;-40
2022/07/15 03:42:16;;;;;;;6.63;2.45;;;;;;;16.14;54.67;96379.66;2055738;28;20047;-40
2022/07/15 03:43:18;;;;;;;7.63;2.35;;;;;;;16.13;55.20;96377.16;2040696;28;20062;-39
2022/07/15 03:44:23;;;;;;;8.52;2.55;;;;;;;16.11;53.62;96374.63;2049441;28;20058;-39
2022/07/15 03:45:24;;;;;;;5.65;2.47;;;;;;;16.16;53.59;96382.19;2064735;28;20042;-39
2022/07/15 03:46:27;;;;;;;8.65;2.58;;;;;;;16.19;54.06;96376.75;2064350;28;20113;-40
2022/07/15 03:47:33;;;;;;;8.43;2.60;;;;;;;16.14;54.30;96376.22;2057975;28;20054;-40
2022/07/15 03:48:36;;;;;;;7.75;2.33;;;;;;;16.19;54.68;96379.38;2055496;28;20047;-40
2022/07/15 03:49:39;;;;;;;6.35;2.33;;;;;;;16.17;54.11;96378.63;2056713;28;20054;-40
2022/07/15 03:50:41;;;;;;;5.53;2.65;;;;;;;16.10;54.74;96378.19;2056403;28;20042;-40
2022/07/15 03:51:42;;;;;;;10.40;2.92;;;;;;;16.05;53.97;96386.34;2056113;28;20046;-44
2022/07/15 03:52:45;;;;;;;8.57;3.25;;;;;;;16.05;54.60;96386.34;2056758;28;20057;-39
2022/07/15 03:53:47;;;;;;;5.40;2.33;;;;;;;16.16;53.63;96376.97;2064449;28;20515;-40
2022/07/15 03:54:48;;;;;;;6.10;2.15;;;;;;;16.16;54.20;96377.78;2048914;28;20433;-43
2022/07/15 03:55:49;;;;;;;6.40;2.65;;;;;;;16.16;53.98;96382.19;2048657;29;20047;-41
2022/07/15 03:56:50;;;;;;;6.55;2.53;;;;;;;16.16;54.35;96384.81;2072922;28;20041;-43
2022/07/15 03:57:55;;;;;;;5.28;2.47;;;;;;;16.19;54.34;96379.38;2063813;28;20562;-38
2022/07/15 03:58:57;;;;;;;5.63;2.30;;;;;;;16.15;53.36;96384.00;2041362;28;20109;-39
2022/07/15 03:59:58;;;;;;;4.57;2.10;;;;;;;16.16;54.91;96376.97;2048229;28;20059;-40
2022/07/15 04:00:59;;;;;;;7.38;2.38;;;;;;;16.18;54.07;96378.53;2056387;28;20038;-39
2022/07/15 04:02:01;;;;;;;5.32;2.65;;;;;;;16.15;53.83;96385.78;2056613;28;20049;-40
2022/07/15 04:03:04;;;;;;;6.88;2.40;;;;;;;16.18;54.28;96382.94;2072597;28;20050;-40
2022/07/15 04:04:05;;;;;;;6.55;2.03;;;;;;;16.18;54.32;96383.78;2064113;28;20050;-42
2022/07/15 04:05:06;;;;;;;5.00;2.30;;;;;;;16.17;53.42;96386.50;2064408;28;20061;-40
2022/07/15 04:06:08;;;;;;;7.95;2.47;;;;;;;16.19;54.32;96384.63;2064283;28;20058;-40
2022/07/15 04:07:09;;;;;;;11.10;2.75;;;;;;;16.21;53.39;96383.59;2064369;28;20046;-41
2022/07/15 04:08:10;;;;;;;8.63;2.28;;;;;;;16.28;53.56;96397.16;2048642;28;20051;-39
2022/07/15 04:09:12;;;;;;;6.80;2.38;;;;;;;16.20;53.15;96394.16;2056226;28;20050;-40
2022/07/15 04:10:14;;;;;;;8.38;2.20;;;;;;;16.19;53.81;96389.88;2071473;28;20049;-39
2022/07/15 04:11:16;;;;;;;6.68;2.25;;;;;;;16.18;53.55;96391.66;2056474;28;20523;-38
2022/07/15 04:12:18;;;;;;;4.65;2.05;;;;;;;16.15;54.10;96391.84;2056240;28;20769;-41
2022/07/15 04:13:19;;;;;;;7.55;2.17;;;;;;;16.13;54.22;96393.72;2063735;28;20554;-43
2022/07/15 04:14:22;;;;;;;5.18;2.28;;;;;;;16.06;53.72;96393.28;2063729;28;20439;-38
2022/07/15 04:15:23;;;;;;;9.43;2.40;;;;;;;16.08;54.38;96396.63;2056486;28;20058;-44
2022/07/15 04:16:24;;;;;;;6.82;2.30;;;;;;;16.12;54.46;96391.19;2048511;28;20055;-40
2022/07/15 04:17:27;;;;;;;8.40;2.53;;;;;;;16.12;54.29;96396.41;2063181;28;20490;-40
2022/07/15 04:18:29;;;;;;;6.90;2.05;;;;;;;16.17;54.12;96383.88;2063979;28;20038;-40
2022/07/15 04:19:31;;;;;;;6.93;1.95;;;;;;;16.19;54.25;96388.06;2055666;28;20046;-41
2022/07/15 04:20:34;;;;;;;5.45;2.20;;;;;;;16.22;53.72;96387.03;2048851;28;20043;-40
2022/07/15 04:21:36;;;;;;;5.72;2.38;;;;;;;16.25;54.29;96385.09;2056285;28;20106;-41
2022/07/15 04:22:40;;;;;;;7.45;2.20;;;;;;;16.27;54.12;96385.81;2056722;28;20063;-39
2022/07/15 04:23:41;;;;;;;8.10;2.10;;;;;;;16.29;54.03;96385.72;2063943;28;20062;-40
2022/07/15 04:24:44;;;;;;;8.82;2.80;;;;;;;16.26;54.15;96385.94;2063837;28;20061;-43
2022/07/15 04:25:51;;;;;;;4.68;2.20;;;;;;;16.29;54.50;96383.09;2056201;28;20058;-41
2022/07/15 04:26:53;;;;;;;7.90;2.08;;;;;;;16.21;54.63;96380.13;2048633;28;20050;-38
2022/07/15 04:27:54;;;;;;;7.07;2.33;;;;;;;16.23;54.42;96383.50;2055807;28;20046;-40
2022/07/15 04:29:00;;;;;;;4.93;2.22;;;;;;;16.28;53.73;96386.69;2056400;28;20058;-39
2022/07/15 04:30:02;;;;;;;4.90;2.28;;;;;;;16.29;53.40;96383.94;2055338;28;20051;-39
2022/07/15 04:31:12;;;;;;;8.30;2.80;;;;;;;16.22;54.77;96385.25;2058811;28;20058;-40
2022/07/15 04:32:26;;;;;;;8.07;1.98;;;;;;;16.18;53.84;96382.94;2057422;28;20107;-40
2022/07/15 04:33:28;;;;;;;4.85;2.10;;;;;;;16.22;53.25;96387.88;2050504;28;20043;-39
2022/07/15 04:34:29;;;;;;;5.35;2.10;;;;;;;16.20;53.76;96388.91;2048737;28;20043;-39
2022/07/15 04:35:30;;;;;;;5.97;2.17;;;;;;;16.15;54.02;96389.22;2048274;28;20043;-41
2022/07/15 04:36:36;;;;;;;10.10;1.95;;;;;;;16.14;54.22;96384.06;2057178;28;20069;-40
2022/07/15 04:37:38;;;;;;;9.68;2.40;;;;;;;16.12;53.79;96389.44;2055759;28;20081;-43
2022/07/15 04:38:39;;;;;;;9.40;2.25;;;;;;;16.14;54.00;96389.31;2064841;28;20475;-40
2022/07/15 04:39:41;;;;;;;11.75;2.45;;;;;;;16.18;54.44;96393.44;2072371;28;20057;-39
2022/07/15 04:40:43;;;;;;;9.15;2.45;;;;;;;16.12;54.43;96391.19;2072098;28;20546;-42
2022/07/15 04:41:44;;;;;;;6.45;2.00;;;;;;;16.08;55.01;96396.63;2063824;28;20054;-43
2022/07/15 04:42:46;;;;;;;5.80;2.20;;;;;;;16.01;54.68;96397.97;2055801;28;20057;-42
2022/07/15 04:43:49;;;;;;;7.03;1.90;;;;;;;16.06;55.13;96393.28;2071777;28;20097;-42
2022/07/15 04:44:51;;;;;;;7.10;2.33;;;;;;;16.05;55.13;96396.81;2056389;28;20435;-40
2022/07/15 04:45:54;;;;;;;3.90;2.00;;;;;;;16.09;54.57;96397.44;2064527;28;20528;-40
2022/07/15 04:46:56;;;;;;;6.85;2.33;;;;;;;16.09;54.35;96403.56;2056307;28;20050;-39
2022/07/15 04:50:52;;;;;;;5.43;2.10;;;;;;;16.09;54.39;96400.06;2074447;28;20050;-40
2022/07/15 04:51:57;;;;;;;8.32;2.13;;;;;;;16.12;54.62;96402.53;2071750;28;20176;-42
2022/07/15 04:52:58;;;;;;;8.93;2.30;;;;;;;16.13;55.35;96404.19;2072099;28;20396;-40
2022/07/15 04:54:00;;;;;;;7.90;2.00;;;;;;;16.10;56.21;96405.22;2063772;28;20050;-39
2022/07/15 04:55:02;;;;;;;6.95;2.08;;;;;;;16.13;54.55;96403.34;2064297;28;20042;-42
2022/07/15 04:56:03;;;;;;;5.57;1.98;;;;;;;16.14;54.79;96399.78;2063953;28;20046;-39
2022/07/15 04:57:07;;;;;;;7.50;2.22;;;;;;;16.12;54.90;96404.28;2057317;28;20086;-42